sensor_id;sensor_type;location;lat;lon;timestamp;pressure;altitude;pressure_sealevel;temperature;humidity
55604;BME280;41468;48.838;9.330;2023-12-14T00:02:24;97288.91;;;6.93;100.00
55604;BME280;41468;48.838;9.330;2023-12-14T00:04:51;97298.78;;;7.08;100.00
55604;BME280;41468;48.838;9.330;2023-12-14T00:07:18;97299.31;;;7.21;100.00
55604;BME280;41468;48.838;9.330;2023-12-14T00:09:44;97294.09;;;7.05;100.00
55604;BME280;41468;48.838;9.330;2023-12-14T00:12:11;97300.88;;;6.92;100.00
55604;BME280;41468;48.838;9.330;2023-12-14T00:14:38;97302.13;;;6.98;100.00
55604;BME280;41468;48.838;9.330;2023-12-14T00:17:04;97306.00;;;6.97;100.00
55604;BME280;41468;48.838;9.330;2023-12-14T00:19:31;97309.50;;;6.98;100.00
55604;BME280;41468;48.838;9.330;2023-12-14T00:21:58;97317.69;;;7.01;100.00
55604;BME280;41468;48.838;9.330;2023-12-14T00:24:25;97318.84;;;7.00;100.00
55604;BME280;41468;48.838;9.330;2023-12-14T00:26:51;97317.34;;;7.06;100.00
55604;BME280;41468;48.838;9.330;2023-12-14T00:29:18;97312.03;;;7.14;100.00
55604;BME280;41468;48.838;9.330;2023-12-14T00:31:45;97316.72;;;7.17;100.00
55604;BME280;41468;48.838;9.330;2023-12-14T00:34:22;97320.59;;;7.16;100.00
55604;BME280;41468;48.838;9.330;2023-12-14T00:36:49;97319.34;;;7.10;100.00
55604;BME280;41468;48.838;9.330;2023-12-14T00:39:16;97322.06;;;7.10;100.00
55604;BME280;41468;48.838;9.330;2023-12-14T00:41:42;97317.78;;;7.08;100.00
55604;BME280;41468;48.838;9.330;2023-12-14T00:44:09;97327.88;;;7.12;100.00
55604;BME280;41468;48.838;9.330;2023-12-14T00:46:36;97331.34;;;7.08;100.00
55604;BME280;41468;48.838;9.330;2023-12-14T00:49:03;97337.56;;;7.09;100.00
55604;BME280;41468;48.838;9.330;2023-12-14T00:51:30;97340.97;;;7.02;100.00
55604;BME280;41468;48.838;9.330;2023-12-14T00:53:56;97343.53;;;6.92;100.00
55604;BME280;41468;48.838;9.330;2023-12-14T00:56:23;97347.28;;;7.10;100.00
55604;BME280;41468;48.838;9.330;2023-12-14T00:58:50;97343.78;;;7.10;100.00
55604;BME280;41468;48.838;9.330;2023-12-14T01:01:17;97353.91;;;7.13;100.00
55604;BME280;41468;48.838;9.330;2023-12-14T01:03:44;97349.28;;;7.17;100.00
55604;BME280;41468;48.838;9.330;2023-12-14T01:06:10;97360.56;;;7.19;100.00
55604;BME280;41468;48.838;9.330;2023-12-14T01:08:37;97369.63;;;7.30;100.00
55604;BME280;41468;48.838;9.330;2023-12-14T01:11:04;97368.38;;;7.24;100.00
55604;BME280;41468;48.838;9.330;2023-12-14T01:13:31;97374.03;;;7.12;100.00
55604;BME280;41468;48.838;9.330;2023-12-14T01:15:57;97371.31;;;7.12;100.00
55604;BME280;41468;48.838;9.330;2023-12-14T01:18:24;97378.50;;;7.27;100.00
55604;BME280;41468;48.838;9.330;2023-12-14T01:20:51;97382.59;;;7.14;100.00
55604;BME280;41468;48.838;9.330;2023-12-14T01:23:18;97384.88;;;7.12;100.00
55604;BME280;41468;48.838;9.330;2023-12-14T01:25:45;97391.03;;;7.05;100.00
55604;BME280;41468;48.838;9.330;2023-12-14T01:28:11;97394.94;;;7.07;100.00
55604;BME280;41468;48.838;9.330;2023-12-14T01:30:40;97397.66;;;7.07;100.00
55604;BME280;41468;48.838;9.330;2023-12-14T01:33:07;97403.50;;;7.10;100.00
55604;BME280;41468;48.838;9.330;2023-12-14T01:35:34;97408.53;;;7.11;100.00
55604;BME280;41468;48.838;9.330;2023-12-14T01:38:01;97415.06;;;7.06;100.00
55604;BME280;41468;48.838;9.330;2023-12-14T01:40:39;97412.16;;;7.19;100.00
55604;BME280;41468;48.838;9.330;2023-12-14T01:43:09;97419.13;;;7.20;100.00
55604;BME280;41468;48.838;9.330;2023-12-14T01:45:39;97421.03;;;7.16;100.00
55604;BME280;41468;48.838;9.330;2023-12-14T01:48:06;97420.88;;;7.05;100.00
55604;BME280;41468;48.838;9.330;2023-12-14T01:50:33;97423.59;;;7.05;100.00
55604;BME280;41468;48.838;9.330;2023-12-14T01:52:59;97432.78;;;6.97;100.00
55604;BME280;41468;48.838;9.330;2023-12-14T01:55:26;97429.28;;;6.96;100.00
55604;BME280;41468;48.838;9.330;2023-12-14T01:57:53;97434.72;;;6.96;100.00
55604;BME280;41468;48.838;9.330;2023-12-14T02:00:42;97436.75;;;7.03;100.00
55604;BME280;41468;48.838;9.330;2023-12-14T02:03:10;97436.06;;;7.10;100.00
55604;BME280;41468;48.838;9.330;2023-12-14T02:05:37;97436.38;;;7.04;100.00
55604;BME280;41468;48.838;9.330;2023-12-14T02:08:04;97445.09;;;6.91;100.00
55604;BME280;41468;48.838;9.330;2023-12-14T02:10:31;97447.47;;;6.96;100.00
55604;BME280;41468;48.838;9.330;2023-12-14T02:23:32;97453.38;;;7.28;100.00
55604;BME280;41468;48.838;9.330;2023-12-14T02:26:00;97458.19;;;7.12;100.00
55604;BME280;41468;48.838;9.330;2023-12-14T02:28:26;97465.50;;;7.07;100.00
55604;BME280;41468;48.838;9.330;2023-12-14T02:30:53;97474.31;;;7.01;100.00
55604;BME280;41468;48.838;9.330;2023-12-14T02:33:20;97475.34;;;6.93;100.00
55604;BME280;41468;48.838;9.330;2023-12-14T02:35:47;97475.13;;;7.01;100.00
55604;BME280;41468;48.838;9.330;2023-12-14T02:38:13;97478.97;;;7.00;100.00
55604;BME280;41468;48.838;9.330;2023-12-14T02:40:40;97479.38;;;7.02;100.00
55604;BME280;41468;48.838;9.330;2023-12-14T02:43:07;97477.13;;;7.08;100.00
55604;BME280;41468;48.838;9.330;2023-12-14T02:45:34;97481.38;;;7.05;100.00
55604;BME280;41468;48.838;9.330;2023-12-14T02:48:11;97494.13;;;7.01;100.00
55604;BME280;41468;48.838;9.330;2023-12-14T02:50:43;97495.78;;;7.10;100.00
55604;BME280;41468;48.838;9.330;2023-12-14T02:53:09;97498.44;;;7.06;100.00
55604;BME280;41468;48.838;9.330;2023-12-14T02:55:36;97488.34;;;7.06;100.00
55604;BME280;41468;48.838;9.330;2023-12-14T02:58:03;97493.38;;;7.04;100.00
55604;BME280;41468;48.838;9.330;2023-12-14T03:00:30;97500.69;;;7.00;100.00
55604;BME280;41468;48.838;9.330;2023-12-14T03:02:57;97498.72;;;7.01;100.00
55604;BME280;41468;48.838;9.330;2023-12-14T03:05:23;97495.72;;;7.06;100.00
55604;BME280;41468;48.838;9.330;2023-12-14T03:07:50;97497.19;;;7.00;100.00
55604;BME280;41468;48.838;9.330;2023-12-14T03:10:17;97504.13;;;6.97;100.00
55604;BME280;41468;48.838;9.330;2023-12-14T03:12:44;97509.13;;;6.95;100.00
55604;BME280;41468;48.838;9.330;2023-12-14T03:15:10;97512.25;;;6.97;100.00
55604;BME280;41468;48.838;9.330;2023-12-14T03:17:37;97526.69;;;7.01;100.00
55604;BME280;41468;48.838;9.330;2023-12-14T03:20:04;97525.22;;;7.07;100.00
55604;BME280;41468;48.838;9.330;2023-12-14T03:22:32;97521.56;;;6.96;100.00
55604;BME280;41468;48.838;9.330;2023-12-14T03:24:59;97529.69;;;6.96;100.00
55604;BME280;41468;48.838;9.330;2023-12-14T03:27:26;97538.19;;;6.95;100.00
55604;BME280;41468;48.838;9.330;2023-12-14T03:29:53;97537.38;;;6.91;100.00
55604;BME280;41468;48.838;9.330;2023-12-14T03:32:19;97546.28;;;6.91;100.00
55604;BME280;41468;48.838;9.330;2023-12-14T03:34:46;97549.81;;;6.95;100.00
55604;BME280;41468;48.838;9.330;2023-12-14T03:37:13;97555.25;;;6.95;100.00
55604;BME280;41468;48.838;9.330;2023-12-14T03:39:39;97561.41;;;6.92;100.00
55604;BME280;41468;48.838;9.330;2023-12-14T03:42:11;97561.47;;;6.96;100.00
55604;BME280;41468;48.838;9.330;2023-12-14T03:44:38;97559.94;;;6.98;100.00
55604;BME280;41468;48.838;9.330;2023-12-14T03:47:05;97565.50;;;7.05;100.00
55604;BME280;41468;48.838;9.330;2023-12-14T03:49:37;97568.72;;;7.11;100.00
55604;BME280;41468;48.838;9.330;2023-12-14T03:52:04;97572.59;;;7.10;100.00
55604;BME280;41468;48.838;9.330;2023-12-14T03:54:31;97579.31;;;7.20;100.00
55604;BME280;41468;48.838;9.330;2023-12-14T03:57:02;97585.00;;;7.11;100.00
55604;BME280;41468;48.838;9.330;2023-12-14T03:59:29;97585.78;;;7.12;100.00
55604;BME280;41468;48.838;9.330;2023-12-14T04:01:56;97593.63;;;7.17;100.00
55604;BME280;41468;48.838;9.330;2023-12-14T04:04:22;97591.59;;;7.10;100.00
55604;BME280;41468;48.838;9.330;2023-12-14T04:06:49;97598.81;;;7.02;100.00
55604;BME280;41468;48.838;9.330;2023-12-14T04:09:18;97601.66;;;7.10;100.00
55604;BME280;41468;48.838;9.330;2023-12-14T04:11:44;97603.94;;;7.07;100.00
55604;BME280;41468;48.838;9.330;2023-12-14T04:14:12;97607.50;;;7.12;100.00
55604;BME280;41468;48.838;9.330;2023-12-14T04:16:39;97612.63;;;7.17;100.00
55604;BME280;41468;48.838;9.330;2023-12-14T04:19:06;97610.22;;;7.12;100.00
55604;BME280;41468;48.838;9.330;2023-12-14T04:21:37;97624.25;;;7.17;100.00
55604;BME280;41468;48.838;9.330;2023-12-14T04:24:04;97623.56;;;7.20;100.00
55604;BME280;41468;48.838;9.330;2023-12-14T04:26:31;97619.22;;;7.16;100.00
55604;BME280;41468;48.838;9.330;2023-12-14T04:28:57;97630.59;;;7.25;100.00
55604;BME280;41468;48.838;9.330;2023-12-14T04:31:24;97631.41;;;7.25;100.00
55604;BME280;41468;48.838;9.330;2023-12-14T04:34:02;97637.78;;;7.14;100.00
55604;BME280;41468;48.838;9.330;2023-12-14T04:36:29;97643.94;;;7.11;100.00
55604;BME280;41468;48.838;9.330;2023-12-14T04:38:55;97642.88;;;7.15;100.00
55604;BME280;41468;48.838;9.330;2023-12-14T04:41:22;97649.50;;;7.18;100.00
55604;BME280;41468;48.838;9.330;2023-12-14T04:43:49;97654.03;;;7.10;100.00
55604;BME280;41468;48.838;9.330;2023-12-14T04:46:16;97652.41;;;7.28;100.00
55604;BME280;41468;48.838;9.330;2023-12-14T04:48:43;97651.94;;;7.23;100.00
55604;BME280;41468;48.838;9.330;2023-12-14T04:51:13;97653.66;;;7.35;100.00
55604;BME280;41468;48.838;9.330;2023-12-14T04:53:40;97659.88;;;7.35;100.00
55604;BME280;41468;48.838;9.330;2023-12-14T04:56:10;97656.97;;;7.24;100.00
55604;BME280;41468;48.838;9.330;2023-12-14T04:58:39;97661.16;;;7.18;100.00
55604;BME280;41468;48.838;9.330;2023-12-14T05:01:06;97671.94;;;7.15;100.00
55604;BME280;41468;48.838;9.330;2023-12-14T05:03:38;97676.56;;;7.14;100.00
55604;BME280;41468;48.838;9.330;2023-12-14T05:06:05;97677.16;;;7.23;100.00
55604;BME280;41468;48.838;9.330;2023-12-14T05:08:32;97687.09;;;7.16;100.00
55604;BME280;41468;48.838;9.330;2023-12-14T05:10:58;97678.06;;;7.12;100.00
55604;BME280;41468;48.838;9.330;2023-12-14T05:13:25;97685.94;;;7.17;100.00
55604;BME280;41468;48.838;9.330;2023-12-14T05:15:52;97690.81;;;7.30;100.00
55604;BME280;41468;48.838;9.330;2023-12-14T05:18:19;97696.56;;;7.25;100.00
55604;BME280;41468;48.838;9.330;2023-12-14T05:20:46;97692.22;;;7.21;100.00
55604;BME280;41468;48.838;9.330;2023-12-14T05:23:13;97700.41;;;7.24;100.00
55604;BME280;41468;48.838;9.330;2023-12-14T05:25:39;97703.56;;;7.26;100.00
55604;BME280;41468;48.838;9.330;2023-12-14T05:28:06;97712.97;;;7.33;100.00
55604;BME280;41468;48.838;9.330;2023-12-14T05:30:39;97720.22;;;7.25;100.00
55604;BME280;41468;48.838;9.330;2023-12-14T05:33:06;97731.78;;;7.22;100.00
55604;BME280;41468;48.838;9.330;2023-12-14T05:35:36;97738.94;;;7.30;100.00
55604;BME280;41468;48.838;9.330;2023-12-14T05:38:03;97737.50;;;7.17;100.00
55604;BME280;41468;48.838;9.330;2023-12-14T05:40:29;97749.69;;;7.23;100.00
55604;BME280;41468;48.838;9.330;2023-12-14T05:42:56;97744.16;;;7.19;100.00
55604;BME280;41468;48.838;9.330;2023-12-14T05:45:23;97750.69;;;7.15;100.00
55604;BME280;41468;48.838;9.330;2023-12-14T05:47:50;97751.81;;;7.14;100.00
55604;BME280;41468;48.838;9.330;2023-12-14T05:50:18;97757.28;;;7.17;100.00
55604;BME280;41468;48.838;9.330;2023-12-14T05:52:44;97759.50;;;7.12;100.00
55604;BME280;41468;48.838;9.330;2023-12-14T05:55:12;97763.44;;;7.14;100.00
55604;BME280;41468;48.838;9.330;2023-12-14T05:57:39;97769.25;;;7.13;100.00
55604;BME280;41468;48.838;9.330;2023-12-14T06:00:06;97770.81;;;7.14;100.00
55604;BME280;41468;48.838;9.330;2023-12-14T06:02:34;97781.38;;;7.19;100.00
55604;BME280;41468;48.838;9.330;2023-12-14T06:05:03;97779.81;;;7.18;100.00
55604;BME280;41468;48.838;9.330;2023-12-14T06:07:41;97779.16;;;7.24;100.00
55604;BME280;41468;48.838;9.330;2023-12-14T06:10:09;97779.31;;;7.32;100.00
55604;BME280;41468;48.838;9.330;2023-12-14T06:12:41;97770.59;;;7.22;100.00
55604;BME280;41468;48.838;9.330;2023-12-14T06:15:08;97787.69;;;7.23;100.00
55604;BME280;41468;48.838;9.330;2023-12-14T06:17:35;97800.09;;;7.24;100.00
55604;BME280;41468;48.838;9.330;2023-12-14T06:20:04;97803.88;;;7.19;100.00
55604;BME280;41468;48.838;9.330;2023-12-14T06:22:31;97808.53;;;7.19;100.00
55604;BME280;41468;48.838;9.330;2023-12-14T06:25:00;97814.91;;;7.26;100.00
55604;BME280;41468;48.838;9.330;2023-12-14T06:27:27;97812.69;;;7.32;100.00
55604;BME280;41468;48.838;9.330;2023-12-14T06:29:54;97821.13;;;7.27;100.00
55604;BME280;41468;48.838;9.330;2023-12-14T06:32:20;97820.50;;;7.34;100.00
55604;BME280;41468;48.838;9.330;2023-12-14T06:34:47;97828.94;;;7.71;100.00
55604;BME280;41468;48.838;9.330;2023-12-14T06:37:14;97822.41;;;7.52;100.00
55604;BME280;41468;48.838;9.330;2023-12-14T06:39:41;97826.97;;;7.48;100.00
55604;BME280;41468;48.838;9.330;2023-12-14T06:42:08;97837.00;;;7.44;100.00
55604;BME280;41468;48.838;9.330;2023-12-14T06:44:35;97845.25;;;7.51;100.00
55604;BME280;41468;48.838;9.330;2023-12-14T06:47:03;97844.00;;;7.45;100.00
55604;BME280;41468;48.838;9.330;2023-12-14T06:49:30;97849.47;;;7.49;100.00
55604;BME280;41468;48.838;9.330;2023-12-14T06:51:56;97863.28;;;7.40;100.00
55604;BME280;41468;48.838;9.330;2023-12-14T06:54:23;97870.28;;;7.41;100.00
55604;BME280;41468;48.838;9.330;2023-12-14T06:56:50;97872.88;;;7.53;100.00
55604;BME280;41468;48.838;9.330;2023-12-14T06:59:16;97883.56;;;7.46;100.00
55604;BME280;41468;48.838;9.330;2023-12-14T07:01:43;97880.03;;;7.42;100.00
55604;BME280;41468;48.838;9.330;2023-12-14T07:04:10;97894.38;;;7.43;100.00
55604;BME280;41468;48.838;9.330;2023-12-14T07:06:41;97901.47;;;7.47;100.00
55604;BME280;41468;48.838;9.330;2023-12-14T07:09:14;97896.66;;;7.41;100.00
55604;BME280;41468;48.838;9.330;2023-12-14T07:11:41;97915.06;;;7.47;100.00
55604;BME280;41468;48.838;9.330;2023-12-14T07:14:08;97924.41;;;7.50;100.00
55604;BME280;41468;48.838;9.330;2023-12-14T07:16:35;97928.63;;;7.47;100.00
55604;BME280;41468;48.838;9.330;2023-12-14T07:19:01;97941.78;;;7.45;100.00
55604;BME280;41468;48.838;9.330;2023-12-14T07:21:28;97943.00;;;7.48;100.00
55604;BME280;41468;48.838;9.330;2023-12-14T07:23:55;97946.22;;;7.53;100.00
55604;BME280;41468;48.838;9.330;2023-12-14T07:26:21;97945.78;;;7.51;100.00
55604;BME280;41468;48.838;9.330;2023-12-14T07:28:48;97949.94;;;7.45;100.00
55604;BME280;41468;48.838;9.330;2023-12-14T07:31:15;97959.09;;;7.57;100.00
55604;BME280;41468;48.838;9.330;2023-12-14T07:33:42;97959.81;;;7.53;100.00
55604;BME280;41468;48.838;9.330;2023-12-14T07:36:09;97954.81;;;7.56;100.00
55604;BME280;41468;48.838;9.330;2023-12-14T07:38:36;97960.38;;;7.63;100.00
55604;BME280;41468;48.838;9.330;2023-12-14T07:41:03;97971.44;;;7.54;100.00
55604;BME280;41468;48.838;9.330;2023-12-14T07:43:30;97972.47;;;7.65;100.00
55604;BME280;41468;48.838;9.330;2023-12-14T07:45:57;97979.38;;;7.63;100.00
55604;BME280;41468;48.838;9.330;2023-12-14T07:48:24;97978.00;;;7.69;100.00
55604;BME280;41468;48.838;9.330;2023-12-14T07:50:51;97985.69;;;7.67;100.00
55604;BME280;41468;48.838;9.330;2023-12-14T07:53:18;97988.69;;;7.62;100.00
55604;BME280;41468;48.838;9.330;2023-12-14T07:55:45;97991.13;;;7.67;100.00
55604;BME280;41468;48.838;9.330;2023-12-14T07:58:12;97998.56;;;7.70;100.00
55604;BME280;41468;48.838;9.330;2023-12-14T08:00:39;98002.00;;;7.67;100.00
55604;BME280;41468;48.838;9.330;2023-12-14T08:03:06;97998.22;;;7.71;100.00
55604;BME280;41468;48.838;9.330;2023-12-14T08:05:33;98006.66;;;7.66;100.00
55604;BME280;41468;48.838;9.330;2023-12-14T08:08:00;98008.19;;;7.83;100.00
55604;BME280;41468;48.838;9.330;2023-12-14T08:10:26;97999.59;;;7.81;100.00
55604;BME280;41468;48.838;9.330;2023-12-14T08:12:53;98007.75;;;7.81;100.00
55604;BME280;41468;48.838;9.330;2023-12-14T08:15:20;98016.97;;;7.77;100.00
55604;BME280;41468;48.838;9.330;2023-12-14T08:17:47;98029.06;;;7.79;100.00
55604;BME280;41468;48.838;9.330;2023-12-14T08:20:24;98031.47;;;7.84;100.00
55604;BME280;41468;48.838;9.330;2023-12-14T08:22:51;98034.84;;;7.78;100.00
55604;BME280;41468;48.838;9.330;2023-12-14T08:25:18;98045.50;;;7.86;100.00
55604;BME280;41468;48.838;9.330;2023-12-14T08:27:45;98045.06;;;7.84;100.00
55604;BME280;41468;48.838;9.330;2023-12-14T08:30:13;98050.94;;;7.86;100.00
55604;BME280;41468;48.838;9.330;2023-12-14T08:32:40;98047.34;;;7.98;100.00
55604;BME280;41468;48.838;9.330;2023-12-14T08:35:07;98049.09;;;7.90;100.00
55604;BME280;41468;48.838;9.330;2023-12-14T08:37:35;98061.97;;;7.93;100.00
55604;BME280;41468;48.838;9.330;2023-12-14T08:40:09;98058.56;;;7.96;100.00
55604;BME280;41468;48.838;9.330;2023-12-14T08:42:36;98070.91;;;7.94;100.00
55604;BME280;41468;48.838;9.330;2023-12-14T08:45:04;98072.50;;;7.95;100.00
55604;BME280;41468;48.838;9.330;2023-12-14T08:47:34;98074.88;;;7.96;100.00
55604;BME280;41468;48.838;9.330;2023-12-14T08:50:00;98082.25;;;7.96;100.00
55604;BME280;41468;48.838;9.330;2023-12-14T08:52:27;98090.41;;;7.96;100.00
55604;BME280;41468;48.838;9.330;2023-12-14T08:54:54;98098.63;;;8.00;100.00
55604;BME280;41468;48.838;9.330;2023-12-14T08:57:20;98110.78;;;8.06;100.00
55604;BME280;41468;48.838;9.330;2023-12-14T08:59:48;98114.66;;;8.05;100.00
55604;BME280;41468;48.838;9.330;2023-12-14T09:02:15;98116.22;;;8.06;100.00
55604;BME280;41468;48.838;9.330;2023-12-14T09:04:48;98124.97;;;8.15;100.00
55604;BME280;41468;48.838;9.330;2023-12-14T09:07:15;98123.69;;;8.09;100.00
55604;BME280;41468;48.838;9.330;2023-12-14T09:09:42;98133.34;;;8.06;100.00
55604;BME280;41468;48.838;9.330;2023-12-14T09:12:09;98136.41;;;8.05;100.00
55604;BME280;41468;48.838;9.330;2023-12-14T09:14:36;98130.13;;;8.01;100.00
55604;BME280;41468;48.838;9.330;2023-12-14T09:17:03;98140.28;;;8.04;100.00
55604;BME280;41468;48.838;9.330;2023-12-14T09:19:30;98141.00;;;8.01;100.00
55604;BME280;41468;48.838;9.330;2023-12-14T09:22:04;98152.56;;;7.97;100.00
55604;BME280;41468;48.838;9.330;2023-12-14T09:24:31;98150.34;;;8.03;100.00
55604;BME280;41468;48.838;9.330;2023-12-14T09:26:58;98158.59;;;8.07;100.00
55604;BME280;41468;48.838;9.330;2023-12-14T09:29:24;98156.41;;;8.12;100.00
55604;BME280;41468;48.838;9.330;2023-12-14T09:31:51;98170.06;;;8.16;100.00
55604;BME280;41468;48.838;9.330;2023-12-14T09:34:18;98171.38;;;8.22;100.00
55604;BME280;41468;48.838;9.330;2023-12-14T09:36:45;98171.38;;;8.22;100.00
55604;BME280;41468;48.838;9.330;2023-12-14T09:39:12;98181.63;;;8.29;100.00
55604;BME280;41468;48.838;9.330;2023-12-14T09:41:39;98183.56;;;8.28;100.00
55604;BME280;41468;48.838;9.330;2023-12-14T09:44:06;98184.41;;;8.32;100.00
55604;BME280;41468;48.838;9.330;2023-12-14T09:46:36;98184.00;;;8.30;100.00
55604;BME280;41468;48.838;9.330;2023-12-14T09:49:04;98176.38;;;8.20;100.00
55604;BME280;41468;48.838;9.330;2023-12-14T09:51:34;98190.31;;;8.18;100.00
55604;BME280;41468;48.838;9.330;2023-12-14T09:54:01;98188.28;;;8.31;100.00
55604;BME280;41468;48.838;9.330;2023-12-14T09:56:28;98182.06;;;8.31;100.00
55604;BME280;41468;48.838;9.330;2023-12-14T09:58:54;98184.41;;;8.32;100.00
55604;BME280;41468;48.838;9.330;2023-12-14T10:01:23;98188.78;;;8.37;100.00
55604;BME280;41468;48.838;9.330;2023-12-14T10:04:07;98183.59;;;8.48;100.00
55604;BME280;41468;48.838;9.330;2023-12-14T10:06:34;98193.00;;;8.50;100.00
55604;BME280;41468;48.838;9.330;2023-12-14T10:09:01;98206.59;;;8.50;100.00
55604;BME280;41468;48.838;9.330;2023-12-14T10:11:28;98206.09;;;8.64;100.00
55604;BME280;41468;48.838;9.330;2023-12-14T10:13:54;98209.97;;;8.63;100.00
55604;BME280;41468;48.838;9.330;2023-12-14T10:16:32;98218.94;;;8.63;100.00
55604;BME280;41468;48.838;9.330;2023-12-14T10:19:00;98228.81;;;8.72;100.00
55604;BME280;41468;48.838;9.330;2023-12-14T10:21:28;98222.31;;;8.76;100.00
55604;BME280;41468;48.838;9.330;2023-12-14T10:23:56;98217.94;;;8.72;100.00
55604;BME280;41468;48.838;9.330;2023-12-14T10:26:24;98226.09;;;8.72;100.00
55604;BME280;41468;48.838;9.330;2023-12-14T10:28:52;98232.28;;;8.69;100.00
55604;BME280;41468;48.838;9.330;2023-12-14T10:31:20;98239.50;;;8.61;100.00
55604;BME280;41468;48.838;9.330;2023-12-14T10:33:48;98241.94;;;8.66;100.00
55604;BME280;41468;48.838;9.330;2023-12-14T10:36:17;98234.91;;;8.65;100.00
55604;BME280;41468;48.838;9.330;2023-12-14T10:38:48;98240.44;;;8.69;100.00
55604;BME280;41468;48.838;9.330;2023-12-14T10:41:16;98244.28;;;8.68;100.00
55604;BME280;41468;48.838;9.330;2023-12-14T10:43:46;98241.78;;;8.59;100.00
55604;BME280;41468;48.838;9.330;2023-12-14T10:46:19;98252.66;;;8.59;100.00
55604;BME280;41468;48.838;9.330;2023-12-14T10:48:48;98249.38;;;8.69;100.00
55604;BME280;41468;48.838;9.330;2023-12-14T10:51:18;98258.25;;;8.66;100.00
55604;BME280;41468;48.838;9.330;2023-12-14T10:53:47;98255.25;;;8.71;100.00
55604;BME280;41468;48.838;9.330;2023-12-14T10:56:16;98266.81;;;8.84;100.00
55604;BME280;41468;48.838;9.330;2023-12-14T10:58:56;98255.41;;;8.78;100.00
55604;BME280;41468;48.838;9.330;2023-12-14T11:01:35;98257.09;;;8.67;100.00
55604;BME280;41468;48.838;9.330;2023-12-14T11:04:05;98262.78;;;8.78;100.00
55604;BME280;41468;48.838;9.330;2023-12-14T11:06:45;98265.59;;;8.81;100.00
55604;BME280;41468;48.838;9.330;2023-12-14T11:09:17;98268.22;;;8.78;100.00
55604;BME280;41468;48.838;9.330;2023-12-14T11:11:56;98271.72;;;8.78;100.00
55604;BME280;41468;48.838;9.330;2023-12-14T11:14:25;98272.34;;;8.88;100.00
55604;BME280;41468;48.838;9.330;2023-12-14T11:16:56;98279.34;;;8.89;100.00
55604;BME280;41468;48.838;9.330;2023-12-14T11:19:32;98274.69;;;8.89;100.00
55604;BME280;41468;48.838;9.330;2023-12-14T11:22:12;98271.28;;;8.92;100.00
55604;BME280;41468;48.838;9.330;2023-12-14T11:24:42;98278.22;;;8.90;100.00
55604;BME280;41468;48.838;9.330;2023-12-14T11:27:11;98281.72;;;8.90;100.00
55604;BME280;41468;48.838;9.330;2023-12-14T11:29:49;98284.59;;;8.97;100.00
55604;BME280;41468;48.838;9.330;2023-12-14T11:32:27;98282.16;;;8.92;100.00
55604;BME280;41468;48.838;9.330;2023-12-14T11:34:55;98280.22;;;8.93;100.00
55604;BME280;41468;48.838;9.330;2023-12-14T11:37:22;98281.44;;;8.95;100.00
55604;BME280;41468;48.838;9.330;2023-12-14T11:39:49;98286.50;;;8.97;100.00
55604;BME280;41468;48.838;9.330;2023-12-14T11:42:18;98286.78;;;8.92;100.00
55604;BME280;41468;48.838;9.330;2023-12-14T11:44:44;98297.78;;;8.95;100.00
55604;BME280;41468;48.838;9.330;2023-12-14T11:47:11;98302.00;;;9.12;100.00
55604;BME280;41468;48.838;9.330;2023-12-14T11:49:38;98307.25;;;9.01;100.00
55604;BME280;41468;48.838;9.330;2023-12-14T11:52:04;98302.66;;;9.05;100.00
55604;BME280;41468;48.838;9.330;2023-12-14T11:54:31;98303.44;;;9.06;100.00
55604;BME280;41468;48.838;9.330;2023-12-14T11:57:01;98305.63;;;9.16;100.00
55604;BME280;41468;48.838;9.330;2023-12-14T11:59:28;98303.44;;;9.06;100.00
55604;BME280;41468;48.838;9.330;2023-12-14T12:01:59;98297.91;;;9.02;100.00
55604;BME280;41468;48.838;9.330;2023-12-14T12:04:27;98302.28;;;9.07;100.00
55604;BME280;41468;48.838;9.330;2023-12-14T12:07:04;98313.97;;;9.07;100.00
55604;BME280;41468;48.838;9.330;2023-12-14T12:09:42;98313.91;;;9.04;100.00
55604;BME280;41468;48.838;9.330;2023-12-14T12:12:10;98308.91;;;9.06;100.00
55604;BME280;41468;48.838;9.330;2023-12-14T12:14:38;98314.13;;;8.95;100.00
55604;BME280;41468;48.838;9.330;2023-12-14T12:17:09;98318.78;;;8.95;100.00
55604;BME280;41468;48.838;9.330;2023-12-14T12:19:37;98328.53;;;8.96;100.00
55604;BME280;41468;48.838;9.330;2023-12-14T12:22:04;98323.78;;;8.93;100.00
55604;BME280;41468;48.838;9.330;2023-12-14T12:24:31;98331.72;;;8.82;100.00
55604;BME280;41468;48.838;9.330;2023-12-14T12:27:00;98337.38;;;8.73;100.00
55604;BME280;41468;48.838;9.330;2023-12-14T12:29:27;98337.94;;;8.82;100.00
55604;BME280;41468;48.838;9.330;2023-12-14T12:32:06;98343.13;;;8.88;100.00
55604;BME280;41468;48.838;9.330;2023-12-14T12:34:33;98337.31;;;8.89;100.00
55604;BME280;41468;48.838;9.330;2023-12-14T12:37:00;98341.19;;;8.88;100.00
55604;BME280;41468;48.838;9.330;2023-12-14T12:39:26;98340.97;;;8.97;100.00
55604;BME280;41468;48.838;9.330;2023-12-14T12:41:59;98337.53;;;9.00;100.00
55604;BME280;41468;48.838;9.330;2023-12-14T12:44:26;98337.97;;;9.02;100.00
55604;BME280;41468;48.838;9.330;2023-12-14T12:46:52;98336.13;;;9.06;100.00
55604;BME280;41468;48.838;9.330;2023-12-14T12:49:36;98331.75;;;9.01;100.00
55604;BME280;41468;48.838;9.330;2023-12-14T12:52:03;98336.25;;;8.94;100.00
55604;BME280;41468;48.838;9.330;2023-12-14T12:54:31;98343.63;;;8.93;100.00
55604;BME280;41468;48.838;9.330;2023-12-14T12:56:59;98346.84;;;8.79;100.00
55604;BME280;41468;48.838;9.330;2023-12-14T12:59:30;98351.31;;;8.72;100.00
55604;BME280;41468;48.838;9.330;2023-12-14T13:01:57;98345.81;;;8.52;100.00
55604;BME280;41468;48.838;9.330;2023-12-14T13:04:24;98350.19;;;8.57;100.00
55604;BME280;41468;48.838;9.330;2023-12-14T13:06:52;98348.28;;;8.57;100.00
55604;BME280;41468;48.838;9.330;2023-12-14T13:09:19;98351.88;;;8.46;100.00
55604;BME280;41468;48.838;9.330;2023-12-14T13:11:47;98368.97;;;8.46;100.00
55604;BME280;41468;48.838;9.330;2023-12-14T13:14:14;98368.00;;;8.38;100.00
55604;BME280;41468;48.838;9.330;2023-12-14T13:16:52;98378.91;;;8.38;100.00